Time;durP1;ratioP1;P1;durP2;ratioP2;P2;SDS_P1;SDS_P2;PMS_P1;PMS_P2;Temp;Humidity;BMP_temperature;BMP_pressure;BME280_temperature;BME280_humidity;BME280_pressure;Samples;Min_cycle;Max_cycle;Signal;HPM_P1;HPM_P2
2022/04/06 00:01:47;;;;;;;19.58;10.18;;;9.40;99.90;;;;;;5051989;28;20385;-67
2022/04/06 00:04:14;;;;;;;24.67;10.55;;;9.30;99.90;;;;;;5052446;28;20062;-67
2022/04/06 00:06:39;;;;;;;20.75;9.77;;;9.30;99.90;;;;;;5052647;28;20033;-68
2022/04/06 00:09:05;;;;;;;20.80;9.98;;;9.30;99.90;;;;;;5052314;28;20041;-67
2022/04/06 00:11:31;;;;;;;25.55;10.07;;;9.40;99.90;;;;;;5052838;28;20052;-67
2022/04/06 00:13:58;;;;;;;19.63;9.40;;;9.30;99.90;;;;;;5052561;28;20441;-68
2022/04/06 00:16:24;;;;;;;23.95;10.85;;;9.30;99.90;;;;;;5052526;28;20501;-67
2022/04/06 00:18:51;;;;;;;32.03;10.60;;;9.30;99.90;;;;;;5052527;28;20045;-68
2022/04/06 00:21:17;;;;;;;20.83;10.68;;;9.30;99.90;;;;;;5052100;28;20056;-67
2022/04/06 00:23:43;;;;;;;24.70;10.73;;;9.30;99.90;;;;;;5052166;28;20451;-69
2022/04/06 00:26:09;;;;;;;25.85;10.50;;;9.40;99.90;;;;;;5052211;28;20045;-68
2022/04/06 00:28:35;;;;;;;23.38;10.65;;;9.40;99.90;;;;;;5052567;28;20060;-68
2022/04/06 00:31:00;;;;;;;26.52;10.48;;;9.30;99.90;;;;;;5052196;28;20037;-67
2022/04/06 00:33:26;;;;;;;25.50;11.10;;;9.30;99.90;;;;;;5051924;28;20095;-68
2022/04/06 00:35:52;;;;;;;24.13;10.85;;;9.40;99.90;;;;;;5052604;28;20314;-68
2022/04/06 00:38:20;;;;;;;26.15;11.07;;;9.40;99.90;;;;;;5053276;28;20560;-67
2022/04/06 00:40:46;;;;;;;23.35;10.82;;;9.40;99.90;;;;;;5051853;28;20304;-68
2022/04/06 00:43:13;;;;;;;28.15;11.07;;;9.30;99.90;;;;;;5054239;28;20041;-68
2022/04/06 00:45:40;;;;;;;26.58;10.95;;;9.30;99.90;;;;;;5055879;28;20045;-67
2022/04/06 00:48:07;;;;;;;26.42;12.30;;;9.30;99.90;;;;;;5055816;28;20041;-67
2022/04/06 00:50:33;;;;;;;21.35;11.40;;;9.20;99.90;;;;;;5055435;28;20041;-69
2022/04/06 00:52:59;;;;;;;27.70;10.63;;;9.30;99.90;;;;;;5055711;28;20398;-67
2022/04/06 00:55:29;;;;;;;25.83;10.95;;;9.30;99.90;;;;;;5055631;28;20048;-67
2022/04/06 00:57:56;;;;;;;23.88;10.40;;;9.30;99.90;;;;;;5056778;28;20053;-67
2022/04/06 01:00:22;;;;;;;22.25;10.45;;;9.30;99.90;;;;;;5056497;28;20040;-68
2022/04/06 01:02:48;;;;;;;19.27;9.52;;;9.30;99.90;;;;;;5056329;28;20052;-67
2022/04/06 01:05:14;;;;;;;18.60;9.48;;;9.30;99.90;;;;;;5056316;28;20041;-68
2022/04/06 01:07:43;;;;;;;23.15;9.15;;;9.30;99.90;;;;;;5055529;28;20063;-67
2022/04/06 01:10:09;;;;;;;20.95;9.65;;;9.30;99.90;;;;;;5055996;28;20112;-67
2022/04/06 01:12:35;;;;;;;23.48;8.85;;;9.30;99.90;;;;;;5055383;28;20733;-68
2022/04/06 01:15:01;;;;;;;26.00;9.15;;;9.30;99.90;;;;;;5055608;28;20129;-69
2022/04/06 01:17:36;;;;;;;21.23;9.25;;;9.30;99.90;;;;;;5055426;28;20036;-66
2022/04/06 01:20:07;;;;;;;18.27;9.07;;;9.30;99.90;;;;;;5054793;28;20250;-69
2022/04/06 01:22:34;;;;;;;19.20;8.90;;;9.30;99.90;;;;;;5054702;28;20057;-68
2022/04/06 01:25:01;;;;;;;21.70;9.18;;;9.30;99.90;;;;;;5054980;28;20045;-68
2022/04/06 01:27:27;;;;;;;22.83;9.40;;;9.30;99.90;;;;;;5054942;28;20064;-66
2022/04/06 01:29:54;;;;;;;20.90;7.85;;;9.30;99.90;;;;;;5055058;28;20116;-67
2022/04/06 01:32:25;;;;;;;21.98;9.18;;;9.30;99.90;;;;;;5055381;28;20370;-67
2022/04/06 01:34:53;;;;;;;21.05;9.10;;;9.30;99.90;;;;;;5055113;28;20048;-68
2022/04/06 01:37:19;;;;;;;16.30;8.05;;;9.30;99.90;;;;;;5038498;28;20041;-68
2022/04/06 01:39:46;;;;;;;25.98;9.02;;;9.30;99.90;;;;;;5054883;28;20048;-68
2022/04/06 01:42:16;;;;;;;17.45;6.75;;;9.30;99.90;;;;;;5054184;28;20032;-68
2022/04/06 01:44:46;;;;;;;17.67;6.80;;;9.40;99.90;;;;;;5054803;28;20087;-69
2022/04/06 01:47:15;;;;;;;18.05;7.13;;;9.30;99.90;;;;;;5055891;28;20045;-67
2022/04/06 01:52:25;;;;;;;;;;;9.40;99.90;;;;;;5056152;28;20043;-68
2022/04/06 01:54:53;;;;;;;15.20;6.70;;;9.40;99.90;;;;;;5054561;28;20019;-68
2022/04/06 01:57:20;;;;;;;15.30;5.80;;;9.40;99.90;;;;;;5054761;28;20040;-68
2022/04/06 01:59:47;;;;;;;16.92;6.28;;;9.40;99.90;;;;;;5054463;28;20045;-69
2022/04/06 02:02:15;;;;;;;13.90;5.45;;;9.40;99.90;;;;;;5054566;28;20052;-69
2022/04/06 02:04:41;;;;;;;18.65;5.88;;;9.40;99.90;;;;;;5054358;28;20041;-68
2022/04/06 02:07:09;;;;;;;16.23;5.38;;;9.50;99.90;;;;;;5054549;28;20053;-68
2022/04/06 02:09:36;;;;;;;16.52;5.97;;;9.50;99.90;;;;;;5055433;28;20078;-68
2022/04/06 02:12:02;;;;;;;16.88;5.70;;;9.50;99.90;;;;;;5053705;28;20051;-67
2022/04/06 02:14:28;;;;;;;15.43;5.57;;;9.50;99.90;;;;;;5055281;28;20040;-67
2022/04/06 02:16:54;;;;;;;19.92;6.88;;;9.50;99.90;;;;;;5055277;28;20044;-67
2022/04/06 02:19:19;;;;;;;22.33;6.95;;;9.50;99.90;;;;;;5054231;28;20052;-67
2022/04/06 02:21:45;;;;;;;18.20;6.72;;;9.50;99.90;;;;;;5054438;28;20055;-67
2022/04/06 02:24:11;;;;;;;19.17;7.18;;;9.50;99.90;;;;;;5054040;28;20037;-68
2022/04/06 02:26:37;;;;;;;20.63;7.30;;;9.40;99.90;;;;;;5055130;28;20045;-67
2022/04/06 02:29:03;;;;;;;18.50;7.30;;;9.40;99.90;;;;;;5053989;28;20048;-67
2022/04/06 02:31:29;;;;;;;18.10;6.65;;;9.40;99.90;;;;;;5053264;28;20044;-67
2022/04/06 02:33:54;;;;;;;17.60;6.13;;;9.30;99.90;;;;;;5053912;28;20385;-67
2022/04/06 02:36:20;;;;;;;19.33;7.35;;;9.30;99.90;;;;;;5054165;28;20045;-67
2022/04/06 02:38:47;;;;;;;24.55;7.95;;;9.30;99.90;;;;;;5053741;28;20394;-69
2022/04/06 02:41:13;;;;;;;28.90;7.68;;;9.30;99.90;;;;;;5054531;28;20045;-68
2022/04/06 02:43:38;;;;;;;25.65;8.32;;;9.40;99.90;;;;;;5053179;28;20420;-67
2022/04/06 02:46:04;;;;;;;26.10;7.95;;;9.30;99.90;;;;;;5036685;28;20044;-67
2022/04/06 02:48:30;;;;;;;20.60;7.53;;;9.30;99.90;;;;;;5053803;28;20044;-68
2022/04/06 02:50:56;;;;;;;20.88;8.60;;;9.30;99.90;;;;;;5053193;28;20033;-68
2022/04/06 02:53:22;;;;;;;22.20;8.30;;;9.40;99.90;;;;;;5053674;28;20037;-67
2022/04/06 02:55:48;;;;;;;26.52;9.20;;;9.40;99.90;;;;;;5054248;28;20433;-71
2022/04/06 02:58:14;;;;;;;19.27;8.32;;;9.40;99.90;;;;;;5053274;28;20056;-69
2022/04/06 03:00:40;;;;;;;22.33;9.07;;;9.40;99.90;;;;;;5054092;28;20052;-67
2022/04/06 03:03:06;;;;;;;25.50;9.57;;;9.40;99.90;;;;;;5053209;28;20355;-68
2022/04/06 03:05:31;;;;;;;25.10;9.63;;;9.50;99.90;;;;;;5053572;28;20053;-68
2022/04/06 03:07:57;;;;;;;23.35;9.57;;;9.40;99.90;;;;;;5054427;28;20037;-67
2022/04/06 03:10:23;;;;;;;24.90;10.02;;;9.40;99.90;;;;;;5054103;28;20296;-67
2022/04/06 03:12:48;;;;;;;28.63;9.65;;;9.40;99.90;;;;;;5052888;28;20051;-67
2022/04/06 03:15:17;;;;;;;23.42;10.10;;;9.40;99.90;;;;;;5054271;28;20048;-68
2022/04/06 03:17:42;;;;;;;26.05;10.80;;;9.40;99.90;;;;;;5053010;28;20424;-67
2022/04/06 03:20:13;;;;;;;23.65;11.23;;;9.40;99.90;;;;;;5052606;28;20037;-67
2022/04/06 03:22:39;;;;;;;25.13;10.25;;;9.40;99.90;;;;;;5052434;28;20052;-68
2022/04/06 03:25:05;;;;;;;30.50;9.60;;;9.40;99.90;;;;;;5053819;28;20102;-67
2022/04/06 03:27:36;;;;;;;24.10;9.82;;;9.40;99.90;;;;;;5054056;28;20128;-67
2022/04/06 03:30:04;;;;;;;23.70;9.48;;;9.40;99.90;;;;;;5052771;28;20110;-67
2022/04/06 03:32:29;;;;;;;25.15;9.63;;;9.50;99.90;;;;;;5052473;28;20044;-69
2022/04/06 03:34:55;;;;;;;22.08;9.02;;;9.50;99.90;;;;;;5052894;28;20048;-68
2022/04/06 03:37:21;;;;;;;21.88;9.20;;;9.50;99.90;;;;;;5052746;28;20055;-67
2022/04/06 03:39:46;;;;;;;25.50;11.23;;;9.60;99.90;;;;;;5053599;28;20054;-67
2022/04/06 03:42:12;;;;;;;20.15;8.77;;;9.60;99.90;;;;;;5052881;28;20032;-68
2022/04/06 03:44:38;;;;;;;22.30;8.63;;;9.50;99.90;;;;;;5052522;28;20071;-67
2022/04/06 03:47:04;;;;;;;18.52;8.77;;;9.50;99.90;;;;;;5052531;28;20063;-67
2022/04/06 03:49:29;;;;;;;20.83;7.80;;;9.70;99.90;;;;;;5053893;28;20037;-69
2022/04/06 03:51:55;;;;;;;23.88;7.85;;;9.60;99.90;;;;;;5053267;28;20068;-68
2022/04/06 03:54:20;;;;;;;17.92;7.60;;;9.60;99.90;;;;;;5019579;28;20119;-67
2022/04/06 03:56:46;;;;;;;18.73;7.65;;;9.60;99.90;;;;;;5053845;28;20084;-68
2022/04/06 03:59:12;;;;;;;22.45;7.60;;;9.60;99.90;;;;;;5052632;28;20448;-67
2022/04/06 04:01:37;;;;;;;14.90;6.85;;;9.70;99.90;;;;;;5051897;28;20040;-67
2022/04/06 04:04:04;;;;;;;16.63;6.72;;;9.70;99.90;;;;;;5052547;28;20041;-67
2022/04/06 04:06:33;;;;;;;16.90;6.78;;;9.60;99.90;;;;;;5052837;28;20137;-69
2022/04/06 04:08:58;;;;;;;19.60;6.00;;;9.60;99.90;;;;;;5052427;28;20094;-67
2022/04/06 04:11:24;;;;;;;16.23;6.68;;;9.50;99.90;;;;;;5052197;28;20068;-69
2022/04/06 04:13:50;;;;;;;18.52;6.72;;;9.60;99.90;;;;;;5053202;28;20051;-69
2022/04/06 04:16:15;;;;;;;15.48;5.90;;;9.50;99.90;;;;;;5053294;28;20052;-70
2022/04/06 04:18:41;;;;;;;12.88;5.63;;;9.50;99.90;;;;;;5057553;28;20047;-67
2022/04/06 04:23:52;;;;;;;16.98;5.45;;;9.50;99.90;;;;;;5057614;28;20045;-68
2022/04/06 04:26:17;;;;;;;17.52;5.93;;;9.50;99.90;;;;;;5056248;28;20496;-67
2022/04/06 04:28:43;;;;;;;14.65;5.75;;;9.50;99.90;;;;;;5056189;28;20037;-67
2022/04/06 04:31:09;;;;;;;12.88;5.22;;;9.40;99.90;;;;;;5055862;28;20126;-64
2022/04/06 04:33:35;;;;;;;12.00;4.63;;;9.40;99.90;;;;;;5057044;28;20119;-65
2022/04/06 04:36:00;;;;;;;15.70;5.07;;;9.30;99.90;;;;;;5057315;28;20446;-64
2022/04/06 04:38:26;;;;;;;15.40;4.90;;;9.40;99.90;;;;;;5057382;28;20069;-65
2022/04/06 04:40:52;;;;;;;13.25;4.78;;;9.40;99.90;;;;;;5057030;28;20037;-64
2022/04/06 04:43:17;;;;;;;15.52;5.57;;;9.40;99.90;;;;;;5056792;28;20044;-64
2022/04/06 04:45:43;;;;;;;14.25;4.82;;;9.40;99.90;;;;;;5056878;28;20045;-64
2022/04/06 04:48:09;;;;;;;16.20;4.63;;;9.40;99.90;;;;;;5057144;28;20037;-64
2022/04/06 04:50:34;;;;;;;16.48;5.00;;;9.30;99.90;;;;;;5056643;28;20090;-64
2022/04/06 04:53:00;;;;;;;20.88;4.95;;;9.30;99.90;;;;;;5056400;28;20041;-64
2022/04/06 04:55:26;;;;;;;16.55;4.95;;;9.40;99.90;;;;;;5055278;28;20036;-65
2022/04/06 04:57:51;;;;;;;17.17;5.43;;;9.30;99.90;;;;;;5041174;28;20030;-64
2022/04/06 05:00:17;;;;;;;12.82;5.05;;;9.40;99.90;;;;;;5044597;28;20492;-65
2022/04/06 05:02:43;;;;;;;12.25;5.10;;;9.40;99.90;;;;;;5045363;28;20099;-64
2022/04/06 05:05:10;;;;;;;11.93;4.80;;;9.30;99.90;;;;;;5043201;28;20115;-64
2022/04/06 05:07:38;;;;;;;14.02;5.65;;;9.30;99.90;;;;;;5052167;28;21615;-65
2022/04/06 05:10:08;;;;;;;12.98;4.68;;;9.30;99.90;;;;;;5044892;28;20127;-65
2022/04/06 05:12:34;;;;;;;12.25;4.93;;;9.30;99.90;;;;;;5053768;28;20036;-64
2022/04/06 05:15:01;;;;;;;13.90;4.50;;;9.30;99.90;;;;;;5048306;28;20084;-64
2022/04/06 05:17:30;;;;;;;14.73;5.00;;;9.30;99.90;;;;;;5048474;28;20093;-65
2022/04/06 05:19:56;;;;;;;18.45;4.30;;;9.20;99.90;;;;;;5047943;28;20048;-64
2022/04/06 05:22:21;;;;;;;11.00;4.72;;;9.30;99.90;;;;;;5050833;28;20068;-65
2022/04/06 05:24:47;;;;;;;15.35;5.45;;;9.30;99.90;;;;;;5046225;28;20041;-65
2022/04/06 05:27:13;;;;;;;13.95;4.60;;;9.30;99.90;;;;;;5051572;28;20029;-65
2022/04/06 05:29:40;;;;;;;13.88;4.20;;;9.30;99.90;;;;;;5054974;28;20561;-65
2022/04/06 05:32:06;;;;;;;11.70;3.70;;;9.30;99.90;;;;;;5045852;28;20481;-64
2022/04/06 05:34:33;;;;;;;10.30;3.75;;;9.30;99.90;;;;;;5055773;28;20496;-65
2022/04/06 05:36:59;;;;;;;11.00;3.30;;;9.30;99.90;;;;;;5056114;28;20059;-64
2022/04/06 05:39:24;;;;;;;13.40;4.30;;;9.30;99.90;;;;;;5055754;28;20120;-63
2022/04/06 05:41:50;;;;;;;12.45;3.70;;;9.30;99.90;;;;;;5055529;28;20106;-64
2022/04/06 05:44:16;;;;;;;13.30;3.95;;;9.20;99.90;;;;;;5055776;28;20123;-65
2022/04/06 05:46:42;;;;;;;9.40;3.15;;;9.20;99.90;;;;;;5055410;28;20040;-64
2022/04/06 05:49:08;;;;;;;9.02;3.03;;;9.20;99.90;;;;;;5055893;28;20041;-64
2022/04/06 05:51:34;;;;;;;11.32;3.25;;;9.30;99.90;;;;;;5055190;28;20095;-64
2022/04/06 05:54:01;;;;;;;7.95;2.95;;;9.20;99.90;;;;;;5046641;28;20044;-68
2022/04/06 05:56:27;;;;;;;10.05;3.00;;;9.20;99.90;;;;;;5054180;28;20530;-64
2022/04/06 05:58:53;;;;;;;10.88;2.88;;;9.20;99.90;;;;;;5055587;28;20045;-66
2022/04/06 06:01:19;;;;;;;9.90;2.60;;;9.20;99.90;;;;;;5055827;28;20053;-66
2022/04/06 06:03:44;;;;;;;9.00;2.30;;;9.20;99.90;;;;;;5054002;28;20114;-64
2022/04/06 06:06:10;;;;;;;10.73;2.80;;;9.20;99.90;;;;;;5054892;28;20037;-64
2022/04/06 06:08:35;;;;;;;10.35;2.65;;;9.20;99.90;;;;;;5054304;28;20048;-64
2022/04/06 06:11:03;;;;;;;6.95;2.10;;;9.30;99.90;;;;;;5050593;28;20107;-64
2022/04/06 06:13:30;;;;;;;12.85;3.03;;;9.30;99.90;;;;;;5019286;28;20362;-63
2022/04/06 06:15:55;;;;;;;8.68;2.00;;;9.30;99.90;;;;;;5036897;28;20030;-63
2022/04/06 06:18:22;;;;;;;9.23;2.22;;;9.20;99.90;;;;;;5035027;28;20108;-64
2022/04/06 06:20:48;;;;;;;9.07;2.70;;;9.20;99.90;;;;;;5034213;28;20124;-64
2022/04/06 06:23:14;;;;;;;12.90;2.72;;;9.20;99.90;;;;;;5048729;28;20214;-65
2022/04/06 06:25:39;;;;;;;9.57;2.83;;;9.20;99.90;;;;;;5052654;28;20382;-64
2022/04/06 06:28:07;;;;;;;9.52;2.90;;;9.20;99.90;;;;;;5034254;28;20375;-63
2022/04/06 06:30:33;;;;;;;10.43;3.35;;;9.20;99.90;;;;;;5036717;28;20413;-65
2022/04/06 06:32:58;;;;;;;11.27;2.97;;;9.20;99.90;;;;;;5035600;28;20037;-63
2022/04/06 06:35:24;;;;;;;10.80;3.00;;;9.30;99.90;;;;;;5033497;28;20033;-63
2022/04/06 06:37:52;;;;;;;9.65;2.50;;;9.30;99.90;;;;;;5037445;28;20053;-64
2022/04/06 06:40:19;;;;;;;12.98;3.20;;;9.30;99.90;;;;;;5037696;28;20099;-64
2022/04/06 06:42:46;;;;;;;11.20;2.83;;;9.20;99.90;;;;;;5040889;28;20083;-64
2022/04/06 06:45:12;;;;;;;10.60;3.05;;;9.20;99.90;;;;;;5048310;28;20424;-64
2022/04/06 06:47:40;;;;;;;11.23;2.90;;;9.20;99.90;;;;;;5053246;28;20048;-63
2022/04/06 06:50:07;;;;;;;9.48;3.17;;;9.20;99.90;;;;;;5054570;28;20045;-63
2022/04/06 06:52:34;;;;;;;10.60;2.95;;;9.20;99.90;;;;;;5054062;28;20041;-64
2022/04/06 06:55:01;;;;;;;11.90;3.25;;;9.10;99.90;;;;;;5053905;28;20481;-65
2022/04/06 06:57:27;;;;;;;13.35;3.85;;;9.10;99.90;;;;;;5054443;28;20032;-64
2022/04/06 06:59:52;;;;;;;11.45;3.20;;;9.20;99.90;;;;;;5054477;28;20468;-64
2022/04/06 07:02:19;;;;;;;13.20;3.30;;;9.20;99.90;;;;;;5053160;28;20041;-64
2022/04/06 07:04:46;;;;;;;13.48;3.70;;;9.30;99.90;;;;;;5038934;28;20037;-63
2022/04/06 07:07:12;;;;;;;13.88;3.47;;;9.30;99.90;;;;;;5033923;28;20042;-64
2022/04/06 07:09:38;;;;;;;15.27;3.25;;;9.20;99.90;;;;;;5034467;28;20033;-64
2022/04/06 07:12:04;;;;;;;14.30;3.63;;;9.30;99.90;;;;;;5038107;28;20453;-64
2022/04/06 07:14:29;;;;;;;15.65;3.88;;;9.30;99.90;;;;;;5053006;28;20128;-64
2022/04/06 07:16:55;;;;;;;11.75;3.47;;;9.30;99.90;;;;;;5053649;28;20045;-64
2022/04/06 07:19:21;;;;;;;11.43;3.78;;;9.30;99.90;;;;;;5054319;28;20049;-65
2022/04/06 07:21:47;;;;;;;15.43;3.83;;;9.30;99.90;;;;;;5053547;28;20068;-65
2022/04/06 07:24:12;;;;;;;14.52;3.30;;;9.30;99.90;;;;;;5053929;28;20124;-63
2022/04/06 07:26:38;;;;;;;13.80;4.00;;;9.30;99.90;;;;;;5053447;28;20040;-63
2022/04/06 07:29:04;;;;;;;13.73;3.33;;;9.30;99.90;;;;;;5053883;28;20046;-63
2022/04/06 07:31:29;;;;;;;14.15;3.88;;;9.30;99.90;;;;;;5053504;28;20052;-63
2022/04/06 07:33:55;;;;;;;16.30;3.70;;;9.30;99.90;;;;;;5054005;28;20037;-64
2022/04/06 07:36:20;;;;;;;13.43;4.05;;;9.30;99.90;;;;;;5047901;28;20029;-62
2022/04/06 07:38:46;;;;;;;9.65;3.72;;;9.30;99.90;;;;;;5035572;28;20532;-63
2022/04/06 07:41:12;;;;;;;14.48;4.30;;;9.30;99.90;;;;;;5046715;28;20063;-63
2022/04/06 07:43:37;;;;;;;12.70;4.35;;;9.40;99.90;;;;;;5052552;28;20041;-63
2022/04/06 07:46:03;;;;;;;14.23;3.88;;;9.40;99.90;;;;;;5052506;28;20232;-62
2022/04/06 07:48:30;;;;;;;14.63;3.60;;;9.50;99.90;;;;;;5054329;28;20037;-63
2022/04/06 07:50:56;;;;;;;15.18;4.00;;;9.40;99.90;;;;;;5044509;28;20052;-62
2022/04/06 07:53:22;;;;;;;13.82;4.20;;;9.40;99.90;;;;;;5052190;28;20100;-63
2022/04/06 07:55:49;;;;;;;10.70;3.78;;;9.40;99.90;;;;;;5057590;28;20090;-63
2022/04/06 07:58:15;;;;;;;14.93;4.57;;;9.40;99.90;;;;;;5057872;28;20045;-63
2022/04/06 08:00:41;;;;;;;13.75;4.72;;;9.50;99.90;;;;;;5057424;28;20409;-63
2022/04/06 08:03:07;;;;;;;15.40;3.95;;;9.40;99.90;;;;;;5057442;28;20081;-63
2022/04/06 08:05:33;;;;;;;14.77;4.43;;;9.50;99.90;;;;;;5057438;28;20116;-63
2022/04/06 08:07:59;;;;;;;13.40;3.90;;;9.60;99.90;;;;;;5057743;28;20126;-65
2022/04/06 08:10:24;;;;;;;13.18;3.92;;;9.60;99.90;;;;;;5057669;28;20037;-64
2022/04/06 08:12:50;;;;;;;20.92;4.63;;;9.60;99.90;;;;;;5057240;28;20045;-63
2022/04/06 08:15:16;;;;;;;14.57;4.03;;;9.50;99.90;;;;;;5057262;28;20045;-65
2022/04/06 08:17:44;;;;;;;11.93;4.25;;;9.50;99.90;;;;;;5048482;28;20045;-64
2022/04/06 08:20:11;;;;;;;12.13;3.60;;;9.60;99.90;;;;;;5037484;28;20052;-64
2022/04/06 08:22:42;;;;;;;12.70;3.67;;;9.70;99.90;;;;;;5044809;28;20053;-64
2022/04/06 08:25:26;;;;;;;12.68;3.38;;;9.60;99.90;;;;;;5056704;28;20179;-64
2022/04/06 08:27:56;;;;;;;14.90;3.50;;;9.70;99.90;;;;;;5056959;28;20055;-64
2022/04/06 08:30:22;;;;;;;11.70;3.55;;;9.60;99.90;;;;;;5057354;28;20114;-64
2022/04/06 08:32:58;;;;;;;11.20;3.28;;;9.60;99.90;;;;;;5056928;28;20044;-64
2022/04/06 08:35:27;;;;;;;11.00;3.20;;;9.60;99.90;;;;;;5057007;28;20059;-63
2022/04/06 08:37:56;;;;;;;11.88;2.80;;;9.60;99.90;;;;;;5053541;28;20048;-64
2022/04/06 08:40:23;;;;;;;13.18;2.92;;;9.60;99.90;;;;;;5056339;28;20106;-63
2022/04/06 08:42:48;;;;;;;10.70;2.63;;;9.50;99.90;;;;;;5056905;28;20104;-63
2022/04/06 08:45:20;;;;;;;14.85;3.25;;;9.40;99.90;;;;;;5056747;28;20041;-63
2022/04/06 08:47:48;;;;;;;11.27;3.45;;;9.40;99.90;;;;;;5057061;28;20428;-64
2022/04/06 08:50:17;;;;;;;14.85;2.95;;;9.50;99.90;;;;;;5055783;28;20155;-64
2022/04/06 08:52:44;;;;;;;13.40;3.65;;;9.40;99.90;;;;;;5056620;28;20816;-64
2022/04/06 08:55:11;;;;;;;13.43;3.38;;;9.40;99.90;;;;;;5056539;28;20052;-64
2022/04/06 08:57:37;;;;;;;7.90;2.78;;;9.50;99.90;;;;;;5055593;28;20049;-64
2022/04/06 09:00:06;;;;;;;10.68;3.53;;;9.50;99.90;;;;;;5056764;28;20041;-63
2022/04/06 09:02:32;;;;;;;7.72;2.97;;;9.40;99.90;;;;;;5056337;28;20036;-65
2022/04/06 09:05:01;;;;;;;9.10;3.30;;;9.40;99.90;;;;;;5054523;28;20712;-63
2022/04/06 09:07:27;;;;;;;11.77;3.20;;;9.40;99.90;;;;;;5053710;28;20103;-64
2022/04/06 09:09:55;;;;;;;9.05;2.78;;;9.50;99.90;;;;;;5038015;28;20099;-65
2022/04/06 09:12:23;;;;;;;11.13;2.85;;;9.60;99.90;;;;;;5041809;28;20401;-64
2022/04/06 09:15:14;;;;;;;10.48;3.33;;;9.60;99.90;;;;;;5056617;28;20045;-64
2022/04/06 09:17:46;;;;;;;14.00;3.17;;;9.70;99.90;;;;;;5056339;28;20037;-63
2022/04/06 09:20:19;;;;;;;11.68;3.83;;;9.60;99.90;;;;;;5056379;28;20094;-65
2022/04/06 09:22:45;;;;;;;8.80;3.08;;;9.60;99.90;;;;;;5055041;28;20049;-64
2022/04/06 09:25:20;;;;;;;10.13;3.30;;;9.70;99.90;;;;;;5055719;28;20068;-64
2022/04/06 09:27:48;;;;;;;;;;;9.70;99.90;;;;;;5055379;28;20079;-65
2022/04/06 09:30:14;;;;;;;11.73;4.05;;;9.80;99.90;;;;;;5055886;28;19972;-64
2022/04/06 09:32:42;;;;;;;9.63;3.72;;;9.90;99.90;;;;;;5055612;28;20382;-64
2022/04/06 09:35:28;;;;;;;10.23;4.03;;;9.90;99.90;;;;;;5055011;28;20098;-63
2022/04/06 09:38:22;;;;;;;10.25;3.75;;;10.00;99.90;;;;;;5056150;28;20049;-63
2022/04/06 09:41:02;;;;;;;12.57;4.53;;;10.00;99.90;;;;;;5055996;28;20115;-63
2022/04/06 09:43:31;;;;;;;10.60;4.18;;;10.00;99.90;;;;;;5055565;28;20055;-63
2022/04/06 09:49:00;;;;;;;12.30;4.50;;;10.00;99.90;;;;;;5055656;28;20124;-64
2022/04/06 09:51:27;;;;;;;13.80;4.82;;;10.20;99.90;;;;;;5037150;28;20033;-63
2022/04/06 09:53:53;;;;;;;14.40;4.45;;;10.10;99.90;;;;;;5054948;28;20489;-63
2022/04/06 09:56:22;;;;;;;12.18;4.47;;;10.10;99.90;;;;;;5055380;28;20076;-64
2022/04/06 09:58:49;;;;;;;12.80;4.75;;;10.10;99.90;;;;;;5055611;28;20044;-63
2022/04/06 10:01:16;;;;;;;11.77;4.63;;;10.10;99.90;;;;;;5046267;28;20045;-63
2022/04/06 10:03:52;;;;;;;11.50;4.75;;;10.10;99.90;;;;;;5051451;28;20051;-64
2022/04/06 10:06:18;;;;;;;10.60;4.65;;;10.20;99.90;;;;;;5055120;28;20045;-63
2022/04/06 10:08:45;;;;;;;13.18;5.90;;;10.10;99.90;;;;;;5055400;28;20044;-63
2022/04/06 10:11:12;;;;;;;13.25;5.30;;;10.20;99.90;;;;;;5055038;28;20119;-63
2022/04/06 10:13:40;;;;;;;12.85;4.65;;;10.20;99.90;;;;;;5054912;28;20123;-63
2022/04/06 10:16:10;;;;;;;11.48;4.50;;;10.30;99.90;;;;;;5054542;28;20504;-63
2022/04/06 10:18:37;;;;;;;11.68;5.10;;;10.30;99.90;;;;;;5055140;28;20512;-63
2022/04/06 10:21:43;;;;;;;11.40;4.90;;;10.30;99.90;;;;;;5055247;28;20083;-63
2022/04/06 10:24:32;;;;;;;10.57;4.70;;;10.30;99.90;;;;;;5054032;28;20466;-65
2022/04/06 10:27:23;;;;;;;10.43;3.95;;;10.30;99.90;;;;;;5055123;28;20064;-64
2022/04/06 10:30:13;;;;;;;9.63;4.88;;;10.20;99.90;;;;;;5054943;28;20048;-65
2022/04/06 10:32:47;;;;;;;10.45;5.15;;;10.30;99.90;;;;;;5054748;28;20040;-64
2022/04/06 10:35:19;;;;;;;8.27;4.78;;;10.30;99.90;;;;;;5054788;28;20120;-63
2022/04/06 10:37:58;;;;;;;13.20;5.90;;;10.20;99.90;;;;;;5054765;28;20044;-63
2022/04/06 10:40:25;;;;;;;12.40;5.57;;;10.30;99.90;;;;;;5054774;28;20052;-63
2022/04/06 10:42:51;;;;;;;12.60;5.38;;;10.30;99.90;;;;;;5054611;28;20045;-64
2022/04/06 10:45:29;;;;;;;10.95;5.22;;;10.30;99.90;;;;;;5053068;28;20060;-63
2022/04/06 10:48:20;;;;;;;12.77;5.90;;;10.30;99.90;;;;;;5054382;28;20055;-64
2022/04/06 10:50:48;;;;;;;16.95;5.53;;;10.20;99.90;;;;;;5044571;28;20367;-64
2022/04/06 10:53:20;;;;;;;15.27;5.63;;;10.20;99.90;;;;;;5046176;28;20053;-62
2022/04/06 10:56:05;;;;;;;10.43;5.47;;;10.20;99.90;;;;;;5053987;28;20485;-66
2022/04/06 10:59:05;;;;;;;12.48;6.07;;;10.30;99.90;;;;;;5053285;28;20053;-64
2022/04/06 11:01:33;;;;;;;15.00;6.32;;;10.30;99.90;;;;;;5054068;28;20486;-64
2022/04/06 11:04:15;;;;;;;14.35;5.43;;;10.30;99.90;;;;;;5053308;28;20120;-63
2022/04/06 11:06:40;;;;;;;12.43;6.47;;;10.40;99.90;;;;;;5053834;28;20068;-64
2022/04/06 11:12:13;;;;;;;10.85;6.53;;;10.30;99.90;;;;;;5054155;28;20037;-63
2022/04/06 11:14:40;;;;;;;12.38;6.32;;;10.40;99.90;;;;;;5054133;28;20036;-63
2022/04/06 11:17:42;;;;;;;15.60;6.55;;;10.50;99.90;;;;;;5054248;28;20052;-63
2022/04/06 11:20:28;;;;;;;14.80;6.13;;;10.70;99.90;;;;;;5054284;28;20132;-64
2022/04/06 11:22:56;;;;;;;13.57;6.43;;;10.80;99.90;;;;;;5053484;28;20355;-64
2022/04/06 11:25:31;;;;;;;15.50;7.05;;;10.90;99.90;;;;;;5053958;28;20103;-64
2022/04/06 11:28:11;;;;;;;13.32;7.32;;;11.00;99.90;;;;;;5053660;28;20136;-64
2022/04/06 11:30:42;;;;;;;14.48;7.30;;;11.00;99.90;;;;;;5053956;28;20079;-64
2022/04/06 11:33:08;;;;;;;16.23;7.28;;;11.00;99.90;;;;;;5052611;28;20037;-63
2022/04/06 11:35:35;;;;;;;16.08;8.07;;;11.00;99.90;;;;;;5053639;28;20114;-64
2022/04/06 11:38:03;;;;;;;14.27;7.15;;;11.10;99.90;;;;;;5053828;28;20123;-65
2022/04/06 11:40:30;;;;;;;14.38;7.20;;;11.00;99.90;;;;;;5052968;28;20048;-64
2022/04/06 11:42:57;;;;;;;13.02;7.88;;;11.00;99.90;;;;;;5053686;28;20071;-63
2022/04/06 11:45:29;;;;;;;13.63;8.60;;;11.00;99.90;;;;;;5053118;28;20459;-63
2022/04/06 11:48:06;;;;;;;15.88;8.82;;;11.00;99.90;;;;;;5053720;28;20033;-64
2022/04/06 11:50:36;;;;;;;14.38;9.20;;;11.20;99.90;;;;;;5046136;28;20083;-64
2022/04/06 11:53:04;;;;;;;15.68;8.35;;;11.40;99.90;;;;;;5043437;28;20362;-64
2022/04/06 11:55:50;;;;;;;17.58;7.65;;;11.50;99.90;;;;;;5053356;28;20106;-64
2022/04/06 11:58:34;;;;;;;20.95;7.47;;;11.60;99.90;;;;;;5053781;28;20056;-66
2022/04/06 12:01:13;;;;;;;17.15;8.38;;;11.70;99.90;;;;;;5043377;28;20042;-64
2022/04/06 12:03:41;;;;;;;13.98;7.85;;;11.70;99.90;;;;;;5047170;28;20051;-64
2022/04/06 12:06:12;;;;;;;11.68;6.78;;;11.70;99.90;;;;;;5053269;28;20037;-64
2022/04/06 12:08:39;;;;;;;13.68;6.35;;;11.70;99.90;;;;;;5052508;28;20130;-62
2022/04/06 12:11:05;;;;;;;15.35;6.90;;;11.60;99.90;;;;;;5042034;28;20047;-63
2022/04/06 12:13:33;;;;;;;12.43;6.63;;;11.60;99.90;;;;;;5047369;28;20134;-66
2022/04/06 12:16:00;;;;;;;16.20;6.95;;;11.50;99.90;;;;;;5052806;28;20405;-64
2022/04/06 12:18:27;;;;;;;16.52;7.57;;;11.50;99.90;;;;;;5053261;28;20108;-64
2022/04/06 12:20:53;;;;;;;14.55;7.38;;;11.50;99.90;;;;;;5052370;28;20879;-66
2022/04/06 12:23:20;;;;;;;12.15;6.80;;;11.40;99.90;;;;;;5052839;28;20088;-64
2022/04/06 12:25:46;;;;;;;13.18;7.07;;;11.50;99.90;;;;;;5052644;28;20469;-65
2022/04/06 12:28:21;;;;;;;12.88;7.10;;;11.60;99.90;;;;;;5053390;28;20041;-64
2022/04/06 12:31:02;;;;;;;14.23;7.18;;;11.70;99.90;;;;;;5053269;28;20524;-64
2022/04/06 12:33:34;;;;;;;12.38;6.95;;;11.70;99.90;;;;;;5051864;28;20052;-64
2022/04/06 12:36:13;;;;;;;11.50;6.60;;;11.60;99.90;;;;;;5052038;28;20037;-64
2022/04/06 12:38:41;;;;;;;15.18;7.25;;;11.60;99.90;;;;;;5054952;28;20052;-64
2022/04/06 12:41:12;;;;;;;13.23;7.00;;;11.60;99.90;;;;;;5056619;28;20048;-64
2022/04/06 12:43:44;;;;;;;12.27;6.28;;;11.60;99.90;;;;;;5056480;28;20032;-65
2022/04/06 12:46:10;;;;;;;15.15;6.72;;;11.70;99.90;;;;;;5056355;28;20175;-64
2022/04/06 12:48:37;;;;;;;15.60;7.15;;;11.70;99.90;;;;;;5057030;28;20115;-64
2022/04/06 12:51:21;;;;;;;15.18;7.38;;;11.70;99.90;;;;;;5056888;28;20163;-64
2022/04/06 12:53:52;;;;;;;14.90;6.15;;;11.70;99.90;;;;;;5055161;28;20379;-64
2022/04/06 12:56:23;;;;;;;13.75;6.18;;;11.60;99.90;;;;;;5056564;28;20043;-64
2022/04/06 12:59:11;;;;;;;12.98;6.63;;;11.60;99.90;;;;;;5056778;28;20033;-64
2022/04/06 13:01:44;;;;;;;10.75;5.82;;;11.60;99.90;;;;;;5055586;28;20037;-64
2022/04/06 13:04:10;;;;;;;13.00;6.30;;;11.70;99.90;;;;;;5056055;28;20462;-64